EGLCEGSH

Guest
Details From EGLC - London City
To EGSH - Norwich
Flight Number -
Tags generated
Created
Modified
Stats Distance 84 nm / 155 km
Max Altitude 9,800 ft / 2,987 m
Waypoints 3
Social Downloads 0
Likes 0
Share

Download

Looking for another format? Having issues loading an existing format? Contact us
Advertisement - Login to hide

Notes

Basic altitude profile: - Ascent Rate: 2500ft/min - Ascent Speed: 250kts - Cruise Altitude: 35000ft - Cruise Speed: 420kts - Descent Rate: 1500ft/min - Descent Speed: 250kts Options: - Use NATs: yes - Use PACOTS: yes - Use low airways: yes - Use high airways: yes

Route

EGLC DIGSU EGSH

ID Type Via Altitude (ft/m) Position (lat/lon) Dist (leg/tot) Name
O EGLC APT - 0 / 0 51.50520 / 0.05518 - / 0 nm London City
DIGSU FIX - 9,800 / 2,987 52.02390 / 0.63472 37 / 37 nm
O EGSH APT - 0 / 0 52.67590 / 1.28265 45 / 83 nm Norwich

Altitude Profile

Advertisement - Login to hide

EGLC

Details ICAO EGLC (LCY)
Name London City
Region United Kingdom
Timezone Europe/London (UTC+1.0)
Stats Elevation 19 ft / 6 m (AMSL)
Location 51.505200° 0.055176°
Runways 1
Magnetic Variation 0.577° E

METAR

EGLC 212220Z AUTO 25009KT 9999 NCD 19/10 Q1014

Decode

TAF

Not found

Departure Runways

ID Width Length Bearing (true/mag) Surface Threshold Overrun Markings Lighting
09 98 ft / 30 m 4,916 ft / 1,498 m 92.88° / 92.31° ASPHALT 315 ft / 96 m 190 ft / 58 m UK-PREC-APP CENTERLINE EDGE THRESHOLD CALVERT REIL-OMNI
27 98 ft / 30 m 4,916 ft / 1,498 m 272.90° / 272.32° ASPHALT 230 ft / 70 m 302 ft / 92 m UK-PREC-APP CENTERLINE EDGE THRESHOLD CALVERT REIL-OMNI

EGSH

Details ICAO EGSH (NWI)
Name Norwich
Region United Kingdom
Timezone Europe/London (UTC+1.0)
Stats Elevation 117 ft / 36 m (AMSL)
Location 52.675900° 1.282650°
Runways 1
Magnetic Variation 0.902° E

METAR

EGSH 212220Z 17005KT CAVOK 14/12 Q1014 NOSIG

Decode

TAF

Not found

Destination Runways

ID Width Length Bearing (true/mag) Surface Threshold Overrun Markings Lighting
09 148 ft / 45 m 5,990 ft / 1,826 m 89.27° / 88.37° ASPHALT 0 ft / 0 m 0 ft / 0 m UK-APP CENTERLINE EDGE THRESHOLD CALVERT-ILS
27 148 ft / 45 m 5,990 ft / 1,826 m 269.29° / 268.39° ASPHALT 0 ft / 0 m 26 ft / 8 m UK-PREC-APP CENTERLINE EDGE THRESHOLD ALSF-I

Approach Navaids

Runway Type Ident Frequency Range Bearing (true/mag) Slope Elevation
27 LOC-ILS INH 110.90 MHz 18 nm / 33 km 269.28° / 268.38 ° - 117 ft / 36 m (AMSL)
27 GS INH 110.90 MHz 10 nm / 19 km 269.28° / 268.38 ° 3.00° 117 ft / 36 m (AMSL)
27 DME INH 110.90 MHz 18 nm / 33 km - - 137 ft / 42 m (AMSL)

Popular Alternatives